Time;durP1;ratioP1;P1;durP2;ratioP2;P2;SDS_P1;SDS_P2;PMS_P1;PMS_P2;Temp;Humidity;BMP_temperature;BMP_pressure;BME280_temperature;BME280_humidity;BME280_pressure;Samples;Min_cycle;Max_cycle;Signal;HPM_P1;HPM_P2
2021/07/31 00:01:00;;;;;;;3.33;1.75;;;;;;;;;;4986665;28;20204;-55
2021/07/31 00:03:25;;;;;;;3.45;1.92;;;;;;;;;;4986061;28;20204;-56
2021/07/31 00:05:50;;;;;;;1.58;1.42;;;;;;;;;;4988145;28;20644;-56
2021/07/31 00:08:15;;;;;;;2.75;1.65;;;;;;;;;;4986398;28;20196;-57
2021/07/31 00:10:41;;;;;;;5.72;2.15;;;;;;;;;;4986000;28;20303;-56
2021/07/31 00:13:06;;;;;;;1.92;1.77;;;;;;;;;;4985815;28;20188;-56
2021/07/31 00:15:31;;;;;;;2.30;1.52;;;;;;;;;;4990144;28;20188;-56
2021/07/31 00:17:56;;;;;;;2.60;2.08;;;;;;;;;;4983566;28;20765;-56
2021/07/31 00:20:21;;;;;;;4.38;2.20;;;;;;;;;;4982502;28;20199;-56
2021/07/31 00:22:46;;;;;;;2.90;2.10;;;;;;;;;;4987297;28;20203;-56
2021/07/31 00:25:11;;;;;;;4.73;2.20;;;;;;;;;;4984403;28;20459;-55
2021/07/31 00:27:37;;;;;;;4.45;2.75;;;;;;;;;;4983322;28;20446;-56
2021/07/31 00:30:03;;;;;;;4.70;2.20;;;;;;;;;;4986045;28;20219;-56
2021/07/31 00:32:28;;;;;;;6.13;2.00;;;;;;;;;;4988383;28;20199;-55
2021/07/31 00:34:53;;;;;;;2.70;2.22;;;;;;;;;;4983304;28;20711;-56
2021/07/31 00:37:18;;;;;;;4.13;2.05;;;;;;;;;;4969293;28;20242;-56
2021/07/31 00:39:43;;;;;;;7.57;2.50;;;;;;;;;;4987852;28;20431;-56
2021/07/31 00:42:09;;;;;;;3.05;1.80;;;;;;;;;;4984826;28;20196;-56
2021/07/31 00:44:34;;;;;;;5.07;2.22;;;;;;;;;;4970959;28;20239;-56
2021/07/31 00:47:00;;;;;;;3.72;1.88;;;;;;;;;;4968901;28;20188;-56
2021/07/31 00:49:25;;;;;;;2.65;2.22;;;;;;;;;;4995547;28;20207;-56
2021/07/31 00:51:50;;;;;;;4.80;2.17;;;;;;;;;;4985304;28;20188;-55
2021/07/31 00:54:16;;;;;;;3.35;2.00;;;;;;;;;;4986496;28;20180;-56
2021/07/31 00:56:41;;;;;;;3.70;2.53;;;;;;;;;;4982464;28;20931;-56
2021/07/31 00:59:07;;;;;;;3.00;2.22;;;;;;;;;;4986930;28;20203;-55
2021/07/31 01:01:32;;;;;;;5.22;2.20;;;;;;;;;;4991846;28;20192;-56
2021/07/31 01:03:57;;;;;;;5.30;2.00;;;;;;;;;;4990764;28;20212;-56
2021/07/31 01:06:22;;;;;;;3.08;2.08;;;;;;;;;;4988341;28;20188;-56
2021/07/31 01:08:48;;;;;;;2.95;2.25;;;;;;;;;;4990011;28;20676;-56
2021/07/31 01:11:13;;;;;;;2.42;2.00;;;;;;;;;;4991953;28;20827;-55
2021/07/31 01:13:39;;;;;;;2.83;2.00;;;;;;;;;;4989572;28;20180;-56
2021/07/31 01:16:09;;;;;;;2.38;1.88;;;;;;;;;;4988731;28;20266;-56
2021/07/31 01:18:34;;;;;;;4.40;2.15;;;;;;;;;;4986478;28;20220;-55
2021/07/31 01:21:00;;;;;;;2.33;1.70;;;;;;;;;;4989673;28;20722;-55
2021/07/31 01:23:25;;;;;;;3.15;1.73;;;;;;;;;;5001702;28;20234;-56
2021/07/31 01:25:50;;;;;;;3.28;1.85;;;;;;;;;;4986805;28;20275;-56
2021/07/31 01:28:16;;;;;;;4.55;1.33;;;;;;;;;;4986206;28;20411;-56
2021/07/31 01:30:41;;;;;;;2.38;1.65;;;;;;;;;;4989014;28;20252;-56
2021/07/31 01:33:06;;;;;;;2.58;1.63;;;;;;;;;;4992375;28;20946;-56
2021/07/31 01:35:31;;;;;;;3.77;1.60;;;;;;;;;;4983308;28;20717;-56
2021/07/31 01:37:57;;;;;;;2.20;1.60;;;;;;;;;;4987403;28;20262;-57
2021/07/31 01:40:22;;;;;;;2.30;1.50;;;;;;;;;;4989205;28;20390;-56
2021/07/31 01:42:48;;;;;;;2.55;1.90;;;;;;;;;;4988538;28;20613;-55
2021/07/31 01:45:13;;;;;;;2.63;1.90;;;;;;;;;;4990559;28;20203;-56
2021/07/31 01:47:43;;;;;;;2.72;1.83;;;;;;;;;;4986671;28;20208;-56
2021/07/31 01:50:08;;;;;;;3.10;1.73;;;;;;;;;;4987491;28;20199;-56
2021/07/31 01:52:33;;;;;;;5.75;1.83;;;;;;;;;;4989336;28;20184;-56
2021/07/31 01:54:58;;;;;;;2.80;1.80;;;;;;;;;;4991019;28;20208;-56
2021/07/31 01:57:23;;;;;;;2.87;1.50;;;;;;;;;;4988052;28;20188;-55
2021/07/31 01:59:48;;;;;;;4.10;1.70;;;;;;;;;;4988265;28;20208;-56
2021/07/31 02:02:14;;;;;;;2.30;1.57;;;;;;;;;;4987393;28;20273;-56
2021/07/31 02:04:39;;;;;;;4.63;1.60;;;;;;;;;;4987355;28;20227;-55
2021/07/31 02:07:04;;;;;;;3.10;1.57;;;;;;;;;;4990558;28;20591;-55
2021/07/31 02:09:30;;;;;;;2.33;1.83;;;;;;;;;;4988867;28;20335;-56
2021/07/31 02:11:55;;;;;;;2.90;1.80;;;;;;;;;;4985586;28;20200;-56
2021/07/31 02:14:20;;;;;;;3.70;1.77;;;;;;;;;;4988299;28;20686;-56
2021/07/31 02:16:46;;;;;;;3.13;1.50;;;;;;;;;;4988897;28;20627;-55
2021/07/31 02:19:11;;;;;;;2.87;1.57;;;;;;;;;;4990603;28;20200;-56
2021/07/31 02:21:36;;;;;;;2.40;1.60;;;;;;;;;;4988079;28;20194;-56
2021/07/31 02:24:01;;;;;;;2.80;1.53;;;;;;;;;;4989333;28;20212;-55
2021/07/31 02:26:26;;;;;;;2.43;1.43;;;;;;;;;;4990466;28;20199;-56
2021/07/31 02:28:52;;;;;;;1.73;1.60;;;;;;;;;;4984897;28;20196;-56
2021/07/31 02:31:17;;;;;;;2.30;1.60;;;;;;;;;;4988455;28;20184;-56
2021/07/31 02:33:42;;;;;;;2.30;1.60;;;;;;;;;;4988653;28;20191;-56
2021/07/31 02:36:08;;;;;;;2.40;1.50;;;;;;;;;;4988731;28;20195;-56
2021/07/31 02:38:33;;;;;;;2.30;1.60;;;;;;;;;;4989285;28;20698;-54
2021/07/31 02:40:58;;;;;;;3.17;1.90;;;;;;;;;;4986943;28;20211;-56
2021/07/31 02:43:24;;;;;;;2.23;1.30;;;;;;;;;;4986736;28;20280;-57
2021/07/31 02:45:49;;;;;;;5.43;1.60;;;;;;;;;;4987866;28;20180;-55
2021/07/31 02:48:14;;;;;;;2.00;1.60;;;;;;;;;;4971442;28;20240;-55
2021/07/31 02:50:39;;;;;;;2.23;1.53;;;;;;;;;;4990438;28;20180;-56
2021/07/31 02:53:04;;;;;;;1.70;1.40;;;;;;;;;;4976769;28;20271;-55
2021/07/31 02:55:31;;;;;;;1.87;1.63;;;;;;;;;;4981701;28;20664;-55
2021/07/31 02:57:57;;;;;;;3.67;1.63;;;;;;;;;;4986546;28;20611;-55
2021/07/31 03:00:22;;;;;;;3.57;2.00;;;;;;;;;;4971508;28;20184;-56
2021/07/31 03:02:47;;;;;;;3.17;1.70;;;;;;;;;;4988887;28;20207;-56
2021/07/31 03:05:12;;;;;;;3.13;1.60;;;;;;;;;;4989110;28;20857;-56
2021/07/31 03:07:37;;;;;;;5.37;1.70;;;;;;;;;;4988007;28;20224;-56
2021/07/31 03:10:03;;;;;;;2.67;1.43;;;;;;;;;;4987161;28;20187;-56
2021/07/31 03:12:30;;;;;;;3.20;1.53;;;;;;;;;;4988225;28;20703;-56
2021/07/31 03:14:55;;;;;;;4.87;1.60;;;;;;;;;;4981825;28;20263;-56
2021/07/31 03:17:21;;;;;;;2.23;1.20;;;;;;;;;;4988587;28;20720;-56
2021/07/31 03:19:46;;;;;;;9.07;1.30;;;;;;;;;;4983694;28;20830;-56
2021/07/31 03:22:12;;;;;;;1.20;1.10;;;;;;;;;;4989398;28;20176;-56
2021/07/31 03:24:37;;;;;;;3.23;1.50;;;;;;;;;;4973687;28;20180;-56
2021/07/31 03:27:03;;;;;;;2.67;1.37;;;;;;;;;;4984721;28;20215;-56
2021/07/31 03:29:31;;;;;;;8.93;1.53;;;;;;;;;;4986981;28;20208;-56
2021/07/31 03:31:56;;;;;;;1.37;1.10;;;;;;;;;;4986054;28;20181;-56
2021/07/31 03:34:21;;;;;;;4.20;1.40;;;;;;;;;;4988895;28;20262;-56
2021/07/31 03:36:51;;;;;;;5.43;1.77;;;;;;;;;;4985144;28;20275;-56
2021/07/31 03:39:17;;;;;;;2.73;1.70;;;;;;;;;;4985409;28;20203;-56
2021/07/31 03:41:42;;;;;;;3.67;1.20;;;;;;;;;;4985746;28;20565;-56
2021/07/31 03:44:08;;;;;;;2.03;1.40;;;;;;;;;;4985288;28;20211;-56
2021/07/31 03:46:33;;;;;;;3.40;1.40;;;;;;;;;;4990065;28;20192;-56
2021/07/31 03:48:59;;;;;;;4.00;1.30;;;;;;;;;;4987054;28;20212;-56
2021/07/31 03:51:24;;;;;;;2.60;1.30;;;;;;;;;;4980288;28;20181;-55
2021/07/31 03:53:49;;;;;;;2.13;1.20;;;;;;;;;;4983336;28;20184;-56
2021/07/31 03:56:14;;;;;;;2.63;1.33;;;;;;;;;;4989674;28;20704;-56
2021/07/31 03:58:39;;;;;;;2.43;1.03;;;;;;;;;;4986289;28;20208;-56
2021/07/31 04:01:05;;;;;;;2.07;1.17;;;;;;;;;;4986503;28;20187;-55
2021/07/31 04:03:30;;;;;;;2.47;1.30;;;;;;;;;;4984374;28;20298;-56
2021/07/31 04:05:55;;;;;;;1.90;1.37;;;;;;;;;;4986966;28;20226;-56
2021/07/31 04:08:20;;;;;;;2.73;1.03;;;;;;;;;;4989825;28;20192;-57
2021/07/31 04:10:45;;;;;;;1.93;1.27;;;;;;;;;;4987070;28;20211;-56
2021/07/31 04:13:10;;;;;;;3.97;1.40;;;;;;;;;;4982234;28;20761;-56
2021/07/31 04:15:39;;;;;;;2.80;1.27;;;;;;;;;;4987529;28;20196;-55
2021/07/31 04:18:04;;;;;;;2.53;1.30;;;;;;;;;;4989362;28;20218;-56
2021/07/31 04:20:29;;;;;;;4.17;1.37;;;;;;;;;;4987184;28;20274;-55
2021/07/31 04:22:55;;;;;;;1.50;1.03;;;;;;;;;;4988358;28;20210;-55
2021/07/31 04:25:20;;;;;;;2.27;1.20;;;;;;;;;;4978141;28;20235;-56
2021/07/31 04:27:45;;;;;;;4.37;1.30;;;;;;;;;;4986783;28;20218;-56
2021/07/31 04:30:10;;;;;;;4.40;1.20;;;;;;;;;;4988209;28;20990;-56
2021/07/31 04:32:36;;;;;;;3.73;1.10;;;;;;;;;;4979879;28;20188;-56
2021/07/31 04:35:01;;;;;;;2.78;1.27;;;;;;;;;;4983796;28;20188;-54
2021/07/31 04:37:27;;;;;;;2.77;1.17;;;;;;;;;;4990010;28;20198;-56
2021/07/31 04:39:52;;;;;;;4.77;1.50;;;;;;;;;;4992936;28;20291;-56
2021/07/31 04:42:17;;;;;;;5.93;0.97;;;;;;;;;;4990005;28;20600;-56
2021/07/31 04:44:42;;;;;;;3.10;1.10;;;;;;;;;;4974288;28;20198;-56
2021/07/31 04:47:08;;;;;;;2.70;1.03;;;;;;;;;;4988979;28;20189;-56
2021/07/31 04:49:34;;;;;;;1.80;1.00;;;;;;;;;;4991488;28;20294;-54
2021/07/31 04:51:59;;;;;;;1.70;1.00;;;;;;;;;;4990533;28;20263;-56
2021/07/31 04:54:25;;;;;;;3.70;1.03;;;;;;;;;;4990579;28;20278;-56
2021/07/31 04:56:50;;;;;;;1.93;1.07;;;;;;;;;;4974613;28;20188;-56
2021/07/31 04:59:15;;;;;;;1.50;1.00;;;;;;;;;;4989051;28;20215;-55
2021/07/31 05:01:40;;;;;;;4.70;0.93;;;;;;;;;;4990331;28;20188;-55
2021/07/31 05:04:05;;;;;;;3.13;1.10;;;;;;;;;;4987444;28;20551;-56
2021/07/31 05:06:30;;;;;;;1.93;0.93;;;;;;;;;;4989987;28;20184;-56
2021/07/31 05:08:56;;;;;;;1.75;1.00;;;;;;;;;;4988300;28;20200;-56
2021/07/31 05:11:21;;;;;;;4.27;1.30;;;;;;;;;;4991042;28;20193;-56
2021/07/31 05:13:47;;;;;;;2.97;1.23;;;;;;;;;;4988580;28;20276;-56
2021/07/31 05:16:16;;;;;;;2.05;1.05;;;;;;;;;;4992194;28;20192;-57
2021/07/31 05:18:42;;;;;;;3.63;1.20;;;;;;;;;;4988501;28;20200;-55
2021/07/31 05:21:07;;;;;;;6.80;1.35;;;;;;;;;;4989154;28;20219;-55
2021/07/31 05:23:32;;;;;;;2.38;1.10;;;;;;;;;;4990584;28;20203;-56
2021/07/31 05:25:57;;;;;;;2.17;1.20;;;;;;;;;;4990547;28;20271;-56
2021/07/31 05:28:23;;;;;;;2.22;1.10;;;;;;;;;;4996382;28;20199;-57
2021/07/31 05:30:48;;;;;;;1.73;0.98;;;;;;;;;;4987749;28;20207;-55
2021/07/31 05:33:13;;;;;;;3.10;1.33;;;;;;;;;;4990720;28;20808;-56
2021/07/31 05:35:38;;;;;;;3.50;1.00;;;;;;;;;;4992366;28;20637;-56
2021/07/31 05:38:03;;;;;;;2.63;1.20;;;;;;;;;;4989804;28;20207;-56
2021/07/31 05:40:28;;;;;;;1.48;1.10;;;;;;;;;;4987790;28;20569;-56
2021/07/31 05:42:54;;;;;;;2.42;0.98;;;;;;;;;;4989942;28;20283;-56
2021/07/31 05:45:19;;;;;;;5.38;1.20;;;;;;;;;;4988341;28;20192;-55
2021/07/31 05:47:44;;;;;;;3.35;0.90;;;;;;;;;;4986958;28;20196;-58
2021/07/31 05:50:10;;;;;;;2.65;1.17;;;;;;;;;;4990083;28;20188;-55
2021/07/31 05:52:36;;;;;;;5.82;1.48;;;;;;;;;;4991133;28;20282;-56
2021/07/31 05:55:02;;;;;;;4.63;1.10;;;;;;;;;;4989306;28;20223;-56
2021/07/31 05:57:27;;;;;;;1.92;1.02;;;;;;;;;;4990713;28;20675;-56
2021/07/31 05:59:52;;;;;;;0.80;0.80;;;;;;;;;;4989915;28;20247;-57
2021/07/31 06:02:18;;;;;;;5.20;0.98;;;;;;;;;;4988105;28;20798;-56
2021/07/31 06:04:43;;;;;;;1.83;0.98;;;;;;;;;;4989344;28;20225;-56
2021/07/31 06:07:10;;;;;;;4.72;1.33;;;;;;;;;;4986528;28;20185;-55
2021/07/31 06:09:36;;;;;;;4.25;1.15;;;;;;;;;;4969784;28;20208;-56
2021/07/31 06:12:02;;;;;;;5.28;1.23;;;;;;;;;;4979801;28;20553;-56
2021/07/31 06:14:27;;;;;;;3.63;1.42;;;;;;;;;;4987536;28;20192;-56
2021/07/31 06:16:52;;;;;;;1.75;1.20;;;;;;;;;;4988803;28;20184;-56
2021/07/31 06:19:17;;;;;;;1.70;1.20;;;;;;;;;;4988858;28;20212;-56
2021/07/31 06:21:43;;;;;;;3.15;1.42;;;;;;;;;;4990461;28;20286;-56
2021/07/31 06:24:08;;;;;;;2.90;1.05;;;;;;;;;;4988893;28;20195;-56
2021/07/31 06:26:34;;;;;;;7.40;1.23;;;;;;;;;;4971945;28;20200;-56
2021/07/31 06:28:59;;;;;;;3.00;1.05;;;;;;;;;;4967114;28;20210;-56
2021/07/31 06:31:24;;;;;;;4.97;1.00;;;;;;;;;;4972792;28;20176;-56
2021/07/31 06:33:49;;;;;;;4.45;1.40;;;;;;;;;;4990271;28;20656;-61
2021/07/31 06:36:19;;;;;;;3.38;1.40;;;;;;;;;;4987976;28;20276;-56
2021/07/31 06:38:44;;;;;;;2.20;1.15;;;;;;;;;;4981503;28;20674;-55
2021/07/31 06:41:09;;;;;;;4.85;0.95;;;;;;;;;;4991359;28;20191;-56
2021/07/31 06:43:35;;;;;;;4.55;1.40;;;;;;;;;;4981624;28;20208;-54
2021/07/31 06:46:08;;;;;;;5.60;1.27;;;;;;;;;;4992296;28;20180;-55
2021/07/31 06:48:33;;;;;;;2.30;1.10;;;;;;;;;;4988913;28;20291;-56
2021/07/31 06:51:01;;;;;;;3.80;1.27;;;;;;;;;;4989443;28;20819;-55
2021/07/31 06:53:26;;;;;;;2.67;1.02;;;;;;;;;;4974304;28;20423;-56
2021/07/31 06:55:51;;;;;;;1.70;1.08;;;;;;;;;;4989853;28;20726;-54
2021/07/31 06:58:16;;;;;;;2.63;1.23;;;;;;;;;;4989214;28;20215;-55
2021/07/31 07:00:41;;;;;;;4.10;1.20;;;;;;;;;;4989765;28;20191;-56
2021/07/31 07:03:07;;;;;;;3.85;0.95;;;;;;;;;;4979135;28;20737;-55
2021/07/31 07:05:33;;;;;;;10.45;1.70;;;;;;;;;;4989371;28;20191;-56
2021/07/31 07:07:58;;;;;;;4.45;1.42;;;;;;;;;;4990705;28;20258;-56
2021/07/31 07:10:24;;;;;;;5.93;1.10;;;;;;;;;;4990770;28;20172;-56
2021/07/31 07:12:49;;;;;;;1.25;0.90;;;;;;;;;;4988910;28;20207;-56
2021/07/31 07:15:14;;;;;;;9.73;1.50;;;;;;;;;;4988257;28;20739;-56
2021/07/31 07:17:39;;;;;;;1.30;0.90;;;;;;;;;;4990654;28;20690;-56
2021/07/31 07:20:05;;;;;;;3.53;1.23;;;;;;;;;;4973555;28;20667;-56
2021/07/31 07:22:30;;;;;;;3.85;1.33;;;;;;;;;;4991530;28;20204;-57
2021/07/31 07:24:55;;;;;;;4.40;1.23;;;;;;;;;;4980129;28;20709;-55
2021/07/31 07:27:20;;;;;;;2.33;1.15;;;;;;;;;;4990518;28;20263;-54
2021/07/31 07:29:46;;;;;;;4.43;1.20;;;;;;;;;;4972937;28;20212;-56
2021/07/31 07:32:11;;;;;;;3.67;1.10;;;;;;;;;;4988077;28;20188;-57
2021/07/31 07:34:36;;;;;;;1.70;1.08;;;;;;;;;;4986643;28;20431;-55
2021/07/31 07:37:02;;;;;;;2.42;1.00;;;;;;;;;;4992722;28;20262;-54
2021/07/31 07:39:27;;;;;;;4.22;1.17;;;;;;;;;;4990064;28;20212;-55
2021/07/31 07:41:52;;;;;;;6.30;1.23;;;;;;;;;;4982364;28;20188;-55
2021/07/31 07:44:17;;;;;;;4.22;1.00;;;;;;;;;;4978177;28;20214;-55
2021/07/31 07:46:43;;;;;;;4.82;1.15;;;;;;;;;;4990655;28;20184;-56
2021/07/31 07:49:08;;;;;;;2.00;1.00;;;;;;;;;;4988821;28;20208;-56
2021/07/31 07:51:33;;;;;;;1.90;1.10;;;;;;;;;;4972255;28;20188;-56
2021/07/31 07:53:58;;;;;;;3.38;1.00;;;;;;;;;;4973722;28;20230;-56
2021/07/31 07:56:23;;;;;;;2.72;1.20;;;;;;;;;;4992245;28;20188;-56
2021/07/31 07:58:53;;;;;;;1.83;1.17;;;;;;;;;;4972869;28;20858;-55
2021/07/31 08:01:18;;;;;;;7.90;1.38;;;;;;;;;;4987037;28;20454;-57
2021/07/31 08:03:43;;;;;;;3.10;1.08;;;;;;;;;;4993193;28;20200;-59
2021/07/31 08:06:14;;;;;;;7.50;1.40;;;;;;;;;;4983578;28;20189;-56
2021/07/31 08:08:39;;;;;;;1.38;1.02;;;;;;;;;;4955081;28;20459;-57
2021/07/31 08:11:07;;;;;;;4.33;1.03;;;;;;;;;;4984561;28;20215;-57
2021/07/31 08:13:32;;;;;;;5.35;1.02;;;;;;;;;;4988838;28;20427;-57
2021/07/31 08:15:57;;;;;;;4.03;1.30;;;;;;;;;;4987094;28;20187;-56
2021/07/31 08:18:22;;;;;;;1.30;1.10;;;;;;;;;;4988322;28;20483;-55
2021/07/31 08:20:47;;;;;;;3.90;1.40;;;;;;;;;;4983465;28;20424;-56
2021/07/31 08:23:13;;;;;;;2.60;1.13;;;;;;;;;;4977391;28;20836;-57
2021/07/31 08:25:38;;;;;;;18.08;1.83;;;;;;;;;;4985895;28;20255;-56
2021/07/31 08:28:03;;;;;;;15.10;1.90;;;;;;;;;;4985742;28;20204;-57
2021/07/31 08:30:28;;;;;;;3.05;1.40;;;;;;;;;;4967934;28;20251;-56
2021/07/31 08:32:54;;;;;;;1.70;1.27;;;;;;;;;;4989247;28;20195;-56
2021/07/31 08:35:19;;;;;;;6.87;1.40;;;;;;;;;;4987207;28;20192;-56
2021/07/31 08:37:44;;;;;;;2.60;1.25;;;;;;;;;;4965484;28;20920;-55
2021/07/31 08:40:10;;;;;;;3.50;1.13;;;;;;;;;;4964660;28;20357;-56
2021/07/31 08:42:36;;;;;;;2.65;1.15;;;;;;;;;;4980913;28;20193;-56
2021/07/31 08:45:02;;;;;;;5.18;1.23;;;;;;;;;;4987148;28;20589;-56
2021/07/31 08:47:28;;;;;;;3.22;0.85;;;;;;;;;;4986784;28;20181;-54
2021/07/31 08:49:54;;;;;;;3.28;1.20;;;;;;;;;;4984475;28;20214;-56
2021/07/31 08:52:20;;;;;;;1.65;0.88;;;;;;;;;;4968537;28;20200;-56
2021/07/31 08:54:45;;;;;;;1.27;1.00;;;;;;;;;;4986778;28;20287;-58
2021/07/31 08:57:11;;;;;;;2.67;1.07;;;;;;;;;;4986004;28;20251;-57
2021/07/31 08:59:36;;;;;;;2.65;1.33;;;;;;;;;;4985834;28;20466;-56
2021/07/31 09:02:02;;;;;;;6.60;1.30;;;;;;;;;;4988163;28;20690;-56
2021/07/31 09:04:27;;;;;;;7.75;1.33;;;;;;;;;;4986939;28;20767;-55
2021/07/31 09:06:53;;;;;;;1.05;0.82;;;;;;;;;;4991791;28;20195;-54
2021/07/31 09:09:28;;;;;;;4.53;1.33;;;;;;;;;;4982843;28;20774;-55
2021/07/31 09:11:57;;;;;;;39.50;3.15;;;;;;;;;;4984681;28;20250;-56
2021/07/31 09:14:23;;;;;;;6.50;1.20;;;;;;;;;;4988024;28;20226;-55
2021/07/31 09:16:48;;;;;;;7.22;1.38;;;;;;;;;;4994716;28;20199;-55
2021/07/31 09:19:14;;;;;;;2.40;1.27;;;;;;;;;;4986538;28;20594;-55
2021/07/31 09:21:40;;;;;;;9.40;1.45;;;;;;;;;;5005226;28;20183;-55
2021/07/31 09:24:17;;;;;;;3.83;1.25;;;;;;;;;;4989387;28;20214;-55
2021/07/31 09:26:48;;;;;;;1.02;0.93;;;;;;;;;;4981280;28;20280;-55
2021/07/31 09:29:14;;;;;;;5.40;1.38;;;;;;;;;;4992610;28;20204;-56
2021/07/31 09:31:50;;;;;;;7.50;1.33;;;;;;;;;;4971728;28;20190;-55
2021/07/31 09:34:29;;;;;;;9.20;1.40;;;;;;;;;;4990282;28;20199;-55
2021/07/31 09:37:04;;;;;;;1.02;0.90;;;;;;;;;;4988894;28;20631;-56
2021/07/31 09:39:46;;;;;;;2.95;1.20;;;;;;;;;;4990276;28;20230;-55
2021/07/31 09:42:23;;;;;;;3.60;1.00;;;;;;;;;;4988965;28;20192;-56
2021/07/31 09:44:48;;;;;;;5.97;1.23;;;;;;;;;;4993886;28;20663;-56
2021/07/31 09:47:14;;;;;;;8.32;1.30;;;;;;;;;;4989994;28;20180;-55
2021/07/31 09:49:39;;;;;;;1.90;1.10;;;;;;;;;;4966390;28;20211;-55
2021/07/31 09:52:14;;;;;;;3.90;1.17;;;;;;;;;;4992591;28;20438;-55
2021/07/31 09:54:42;;;;;;;10.88;1.35;;;;;;;;;;4990400;28;20218;-55
2021/07/31 09:57:07;;;;;;;7.40;1.10;;;;;;;;;;4974922;28;20198;-54
2021/07/31 09:59:34;;;;;;;5.05;1.30;;;;;;;;;;4993965;28;20453;-55
2021/07/31 10:02:00;;;;;;;2.38;0.98;;;;;;;;;;4989826;28;20187;-57
2021/07/31 10:04:25;;;;;;;8.63;1.80;;;;;;;;;;4998794;28;20587;-56
2021/07/31 10:06:52;;;;;;;1.48;1.05;;;;;;;;;;4989271;28;20195;-56
2021/07/31 10:09:17;;;;;;;4.70;1.30;;;;;;;;;;4991257;28;20188;-56
2021/07/31 10:11:44;;;;;;;4.20;1.38;;;;;;;;;;4996438;28;20191;-55
2021/07/31 10:14:09;;;;;;;3.28;1.30;;;;;;;;;;4989615;28;20188;-57
2021/07/31 10:16:36;;;;;;;5.05;1.50;;;;;;;;;;4992040;28;20186;-56
2021/07/31 10:19:02;;;;;;;2.95;1.52;;;;;;;;;;4988199;28;20199;-56
2021/07/31 10:21:29;;;;;;;3.42;1.50;;;;;;;;;;4981939;28;20181;-55
2021/07/31 10:23:54;;;;;;;1.25;1.10;;;;;;;;;;4985568;28;20196;-56
2021/07/31 10:26:20;;;;;;;3.97;1.20;;;;;;;;;;4979575;28;20183;-55
2021/07/31 10:28:45;;;;;;;12.20;1.75;;;;;;;;;;4972711;28;20811;-53
2021/07/31 10:31:30;;;;;;;1.58;0.93;;;;;;;;;;4990691;28;20184;-55
2021/07/31 10:33:55;;;;;;;1.35;1.13;;;;;;;;;;4986712;28;20179;-54
2021/07/31 10:36:29;;;;;;;1.80;1.40;;;;;;;;;;4978850;28;20199;-55
2021/07/31 10:38:54;;;;;;;7.65;1.30;;;;;;;;;;4992582;28;20208;-56
2021/07/31 10:41:45;;;;;;;9.90;1.30;;;;;;;;;;4988959;28;20186;-56
2021/07/31 10:44:10;;;;;;;10.23;1.77;;;;;;;;;;4991808;28;20312;-54
2021/07/31 10:46:36;;;;;;;1.85;1.13;;;;;;;;;;4988781;28;20590;-55
2021/07/31 10:49:20;;;;;;;7.57;1.58;;;;;;;;;;4988344;28;20276;-54
2021/07/31 10:51:45;;;;;;;3.25;1.20;;;;;;;;;;4985436;28;20199;-55
2021/07/31 10:54:10;;;;;;;4.43;1.30;;;;;;;;;;4990064;28;20643;-55
2021/07/31 10:56:54;;;;;;;8.10;1.30;;;;;;;;;;4987629;28;20185;-56
2021/07/31 10:59:20;;;;;;;5.10;1.38;;;;;;;;;;4992004;28;20282;-55
2021/07/31 11:01:46;;;;;;;3.17;1.30;;;;;;;;;;4988079;28;20660;-55
2021/07/31 11:04:31;;;;;;;13.02;1.45;;;;;;;;;;4984121;28;20303;-57
2021/07/31 11:07:14;;;;;;;5.18;1.27;;;;;;;;;;4986590;28;20257;-54
2021/07/31 11:09:39;;;;;;;3.00;2.28;;;;;;;;;;4989474;28;20212;-56
2021/07/31 11:12:31;;;;;;;5.28;1.55;;;;;;;;;;4970264;28;20187;-56
2021/07/31 11:15:03;;;;;;;5.70;1.20;;;;;;;;;;4985974;28;20211;-56
2021/07/31 11:17:28;;;;;;;2.08;1.15;;;;;;;;;;4962959;28;20715;-54
2021/07/31 11:19:53;;;;;;;1.85;1.23;;;;;;;;;;4986745;28;20265;-55
2021/07/31 11:22:19;;;;;;;2.20;1.30;;;;;;;;;;4970758;28;20199;-55
2021/07/31 11:24:44;;;;;;;5.43;1.67;;;;;;;;;;4985868;28;21142;-55
2021/07/31 11:27:12;;;;;;;14.65;1.83;;;;;;;;;;4984258;28;20184;-55
2021/07/31 11:29:37;;;;;;;5.90;1.83;;;;;;;;;;5005481;28;20785;-55
2021/07/31 11:32:12;;;;;;;9.10;1.42;;;;;;;;;;4990680;28;20262;-55
2021/07/31 11:34:38;;;;;;;8.43;1.48;;;;;;;;;;4989866;28;20660;-55
2021/07/31 11:37:04;;;;;;;3.70;1.52;;;;;;;;;;4978605;28;20603;-55
2021/07/31 11:39:29;;;;;;;2.13;1.10;;;;;;;;;;4965503;28;20207;-55
2021/07/31 11:41:58;;;;;;;1.83;1.30;;;;;;;;;;4991465;28;20277;-55
2021/07/31 11:44:26;;;;;;;3.80;1.15;;;;;;;;;;4989563;28;20258;-55
2021/07/31 11:46:53;;;;;;;2.53;1.52;;;;;;;;;;4985086;28;20779;-55
2021/07/31 11:49:25;;;;;;;16.05;1.63;;;;;;;;;;4984899;28;20219;-55
2021/07/31 11:51:51;;;;;;;2.80;1.20;;;;;;;;;;4986026;28;20184;-56
2021/07/31 11:54:16;;;;;;;4.10;1.23;;;;;;;;;;4985784;28;20188;-56
2021/07/31 11:56:42;;;;;;;5.73;1.50;;;;;;;;;;4984270;28;20223;-55
2021/07/31 11:59:08;;;;;;;1.38;0.98;;;;;;;;;;4984276;28;20470;-55
2021/07/31 12:01:34;;;;;;;3.80;1.10;;;;;;;;;;4985689;28;20192;-55
2021/07/31 12:03:59;;;;;;;7.70;1.17;;;;;;;;;;4983374;28;20258;-55
2021/07/31 12:06:28;;;;;;;12.68;1.60;;;;;;;;;;4984268;28;20227;-55
2021/07/31 12:08:53;;;;;;;2.65;1.20;;;;;;;;;;4986885;28;20246;-55
2021/07/31 12:11:34;;;;;;;10.15;1.70;;;;;;;;;;4984910;28;20848;-56
2021/07/31 12:14:00;;;;;;;2.15;1.10;;;;;;;;;;4986344;28;20188;-55
2021/07/31 12:16:25;;;;;;;1.90;1.00;;;;;;;;;;4985387;28;20629;-55
2021/07/31 12:18:51;;;;;;;9.98;1.00;;;;;;;;;;4979187;28;20611;-55
2021/07/31 12:21:26;;;;;;;6.20;1.25;;;;;;;;;;4990968;28;20187;-56
2021/07/31 12:23:52;;;;;;;8.80;1.20;;;;;;;;;;4993499;28;20860;-57
2021/07/31 12:26:28;;;;;;;3.50;1.00;;;;;;;;;;4979417;28;20207;-55
2021/07/31 12:28:55;;;;;;;1.77;1.27;;;;;;;;;;4973564;28;20599;-54
2021/07/31 12:31:20;;;;;;;4.95;1.20;;;;;;;;;;4984298;28;20180;-55
2021/07/31 12:33:45;;;;;;;1.52;1.10;;;;;;;;;;4983603;28;20206;-55
2021/07/31 12:36:10;;;;;;;4.07;1.10;;;;;;;;;;4983746;28;20530;-55
2021/07/31 12:38:35;;;;;;;7.82;1.38;;;;;;;;;;4973410;28;21006;-55
2021/07/31 12:41:02;;;;;;;3.72;1.15;;;;;;;;;;4983644;28;20199;-55
2021/07/31 12:43:28;;;;;;;2.33;1.00;;;;;;;;;;4982078;28;20203;-55
2021/07/31 12:45:54;;;;;;;2.63;1.10;;;;;;;;;;4983506;28;20252;-55
2021/07/31 12:48:20;;;;;;;1.58;0.70;;;;;;;;;;4982279;28;20703;-55
2021/07/31 12:50:45;;;;;;;2.67;0.90;;;;;;;;;;4978706;28;20286;-55
2021/07/31 12:53:11;;;;;;;1.70;1.20;;;;;;;;;;4967120;28;20216;-55
2021/07/31 12:55:36;;;;;;;1.65;1.15;;;;;;;;;;4986616;28;20180;-55
2021/07/31 12:58:02;;;;;;;1.10;1.00;;;;;;;;;;4990253;28;20805;-55
2021/07/31 13:00:27;;;;;;;1.23;1.05;;;;;;;;;;4968636;28;20656;-55
2021/07/31 13:02:53;;;;;;;1.70;1.00;;;;;;;;;;4988027;28;20195;-55
2021/07/31 13:05:18;;;;;;;1.85;1.20;;;;;;;;;;4972787;28;20786;-55
2021/07/31 13:07:44;;;;;;;4.13;1.20;;;;;;;;;;4989820;28;20203;-55
2021/07/31 13:10:09;;;;;;;3.03;1.10;;;;;;;;;;4981531;28;20168;-56
2021/07/31 13:12:35;;;;;;;2.70;1.10;;;;;;;;;;4990591;28;20188;-55
2021/07/31 13:15:00;;;;;;;2.13;1.05;;;;;;;;;;4971128;28;20558;-56
2021/07/31 13:17:25;;;;;;;1.55;1.10;;;;;;;;;;4990815;28;20190;-55
2021/07/31 13:19:50;;;;;;;4.40;1.35;;;;;;;;;;4992004;28;20208;-55
2021/07/31 13:22:16;;;;;;;1.23;1.08;;;;;;;;;;4989001;28;20180;-55
2021/07/31 13:24:41;;;;;;;4.60;1.30;;;;;;;;;;4974790;28;20295;-56
2021/07/31 13:27:07;;;;;;;11.25;1.40;;;;;;;;;;4988406;28;20188;-57
2021/07/31 13:29:32;;;;;;;4.38;1.17;;;;;;;;;;4975242;28;20274;-56
2021/07/31 13:31:58;;;;;;;3.17;1.30;;;;;;;;;;4969132;28;20587;-56
2021/07/31 13:34:23;;;;;;;6.30;1.27;;;;;;;;;;4974385;28;20474;-56
2021/07/31 13:36:50;;;;;;;6.03;1.20;;;;;;;;;;4992706;28;20203;-57
2021/07/31 13:39:20;;;;;;;5.82;1.33;;;;;;;;;;4972696;28;20192;-56
2021/07/31 13:41:45;;;;;;;7.57;1.80;;;;;;;;;;4971802;28;20190;-57
2021/07/31 13:44:14;;;;;;;7.93;1.25;;;;;;;;;;4975073;28;20204;-56
2021/07/31 13:46:39;;;;;;;5.15;1.30;;;;;;;;;;4989755;28;20259;-56
2021/07/31 13:49:05;;;;;;;1.55;1.10;;;;;;;;;;4993565;28;20614;-57
2021/07/31 13:51:30;;;;;;;1.27;1.05;;;;;;;;;;4986176;28;20184;-57
2021/07/31 13:53:56;;;;;;;4.72;1.20;;;;;;;;;;4988495;28;20435;-57
2021/07/31 13:56:21;;;;;;;7.25;1.33;;;;;;;;;;4988617;28;20184;-56
2021/07/31 13:58:46;;;;;;;3.70;1.08;;;;;;;;;;4987649;28;20218;-57
2021/07/31 14:01:11;;;;;;;2.85;1.20;;;;;;;;;;4987809;28;20188;-57
2021/07/31 14:03:39;;;;;;;5.63;1.20;;;;;;;;;;4990166;28;20204;-56
2021/07/31 14:06:04;;;;;;;1.85;1.23;;;;;;;;;;4992135;28;20263;-55
2021/07/31 14:08:29;;;;;;;3.53;1.35;;;;;;;;;;4985000;28;20214;-56
2021/07/31 14:10:54;;;;;;;12.07;1.38;;;;;;;;;;4991414;28;20199;-55
2021/07/31 14:13:20;;;;;;;14.23;1.60;;;;;;;;;;4974521;28;20184;-56
2021/07/31 14:15:46;;;;;;;1.55;1.00;;;;;;;;;;4973247;28;20211;-56
2021/07/31 14:18:11;;;;;;;6.22;1.42;;;;;;;;;;4988653;28;20215;-56
2021/07/31 14:20:41;;;;;;;3.92;1.40;;;;;;;;;;4990504;28;20256;-56
2021/07/31 14:23:06;;;;;;;7.93;1.50;;;;;;;;;;4974915;28;20230;-56
2021/07/31 14:25:31;;;;;;;4.07;1.35;;;;;;;;;;4980981;28;21280;-56
2021/07/31 14:27:57;;;;;;;2.95;1.20;;;;;;;;;;4994836;28;20200;-55
2021/07/31 14:30:22;;;;;;;3.90;1.35;;;;;;;;;;4987585;28;20181;-56
2021/07/31 14:32:47;;;;;;;5.88;1.30;;;;;;;;;;4989402;28;20207;-54
2021/07/31 14:35:14;;;;;;;2.47;1.42;;;;;;;;;;4987605;28;20263;-55
2021/07/31 14:37:39;;;;;;;4.47;1.58;;;;;;;;;;4986880;28;20192;-56